Time;durP1;ratioP1;P1;durP2;ratioP2;P2;SDS_P1;SDS_P2;PMS_P1;PMS_P2;Temp;Humidity;BMP_temperature;BMP_pressure;BME280_temperature;BME280_humidity;BME280_pressure;Samples;Min_cycle;Max_cycle;Signal;HPM_P1;HPM_P2
2022/09/28 00:01:16;;;;;;;0.20;0.17;;;;;;;12.13;100.00;98272.81;7394348;19;20003;-60
2022/09/28 00:03:43;;;;;;;0.22;0.22;;;;;;;11.90;100.00;98276.38;7389173;19;20093;-60
2022/09/28 00:06:12;;;;;;;1.25;1.00;;;;;;;12.08;100.00;98282.00;7390474;19;20488;-61
2022/09/28 00:08:38;;;;;;;0.65;0.65;;;;;;;11.75;100.00;98278.81;7389365;19;20014;-60
2022/09/28 00:11:06;;;;;;;0.43;0.43;;;;;;;12.00;100.00;98272.69;7389513;19;20477;-60
2022/09/28 00:13:34;;;;;;;0.30;0.30;;;;;;;12.26;100.00;98274.22;7388700;19;20019;-60
2022/09/28 00:16:00;;;;;;;2.30;1.10;;;;;;;12.15;100.00;98264.69;7392793;19;20007;-60
2022/09/28 00:18:27;;;;;;;0.38;0.35;;;;;;;11.91;100.00;98270.25;7389171;19;20014;-61
2022/09/28 00:21:11;;;;;;;0.43;0.43;;;;;;;11.73;100.00;98276.53;7393902;19;20006;-60
2022/09/28 00:26:23;;;;;;;0.90;0.60;;;;;;;11.51;100.00;98285.06;7394431;19;20039;-60
2022/09/28 00:28:53;;;;;;;0.30;0.30;;;;;;;11.33;100.00;98280.16;7393137;19;20014;-60
2022/09/28 00:31:20;;;;;;;0.40;0.40;;;;;;;11.33;100.00;98286.47;7387841;19;20011;-60
2022/09/28 00:33:50;;;;;;;0.20;0.20;;;;;;;11.42;100.00;98288.94;7386459;19;20010;-60
2022/09/28 00:36:17;;;;;;;2.33;0.70;;;;;;;11.52;100.00;98281.00;7393768;19;20011;-61
2022/09/28 00:38:45;;;;;;;0.20;0.20;;;;;;;11.61;100.00;98286.25;7389519;19;20262;-61
2022/09/28 00:41:12;;;;;;;0.40;0.40;;;;;;;11.63;100.00;98283.69;7390243;19;20497;-60
2022/09/28 00:43:38;;;;;;;0.50;0.50;;;;;;;11.54;100.00;98284.03;7389668;19;20018;-60
2022/09/28 00:46:09;;;;;;;0.88;0.60;;;;;;;11.81;100.00;98282.28;7392096;19;20010;-60
2022/09/28 00:48:38;;;;;;;0.80;0.57;;;;;;;11.51;100.00;98279.50;7388780;19;20459;-60
2022/09/28 00:51:10;;;;;;;0.95;0.50;;;;;;;11.65;100.00;98283.91;7387736;19;20010;-60
2022/09/28 00:53:39;;;;;;;1.40;0.85;;;;;;;11.48;100.00;98280.53;7385505;19;20018;-60
2022/09/28 00:56:10;;;;;;;0.57;0.57;;;;;;;11.56;100.00;98278.69;7391530;19;20038;-60
2022/09/28 00:58:41;;;;;;;0.47;0.47;;;;;;;11.65;100.00;98278.34;7387614;19;20325;-60
2022/09/28 01:01:08;;;;;;;0.90;0.82;;;;;;;11.63;100.00;98280.91;7386901;19;20017;-60
2022/09/28 01:03:34;;;;;;;0.25;0.25;;;;;;;11.43;100.00;98278.56;7391719;19;20383;-60
2022/09/28 01:06:03;;;;;;;1.33;0.70;;;;;;;11.43;100.00;98278.56;7399032;19;20010;-61
2022/09/28 01:08:32;;;;;;;0.75;0.68;;;;;;;11.32;100.00;98276.63;7392853;19;20014;-61
2022/09/28 01:10:59;;;;;;;0.20;0.20;;;;;;;11.37;100.00;98273.03;7398696;19;20074;-61
2022/09/28 01:13:30;;;;;;;0.40;0.40;;;;;;;11.61;100.00;98277.88;7399631;19;20015;-60
2022/09/28 01:16:06;;;;;;;0.30;0.30;;;;;;;12.10;100.00;98271.09;7401724;19;20031;-60
2022/09/28 01:18:46;;;;;;;0.40;0.40;;;;;;;12.06;100.00;98278.97;7402732;19;20018;-61
2022/09/28 01:21:18;;;;;;;3.00;0.68;;;;;;;12.41;100.00;98274.53;7398510;19;20010;-60
2022/09/28 01:24:09;;;;;;;0.30;0.30;;;;;;;12.37;100.00;98279.63;7400774;19;20021;-60
2022/09/28 01:27:05;;;;;;;0.30;0.30;;;;;;;12.64;100.00;98286.94;7397194;19;20006;-60
2022/09/28 01:29:46;;;;;;;2.65;0.60;;;;;;;12.75;100.00;98270.78;7396929;19;20038;-60
2022/09/28 01:32:24;;;;;;;;;;;;;;;12.80;100.00;98283.16;7399727;19;20014;-60
2022/09/28 01:35:04;;;;;;;0.30;0.30;;;;;;;12.45;100.00;98286.16;7399923;19;19953;-60
2022/09/28 01:38:09;;;;;;;0.32;0.32;;;;;;;12.40;100.00;98279.34;7398052;19;20348;-83
2022/09/28 01:40:36;;;;;;;0.30;0.30;;;;;;;12.74;100.00;98274.09;7394596;19;20323;-85
2022/09/28 01:43:10;;;;;;;4.68;1.05;;;;;;;12.93;100.00;98280.41;7393838;19;20015;-83
2022/09/28 01:45:46;;;;;;;2.05;0.73;;;;;;;12.77;100.00;98278.63;7398146;19;20082;-84
2022/09/28 01:48:20;;;;;;;0.40;0.40;;;;;;;12.98;100.00;98274.00;7394022;19;20039;-84
2022/09/28 01:50:50;;;;;;;0.95;0.95;;;;;;;13.06;100.00;98280.50;7392148;19;20048;-82
2022/09/28 01:53:21;;;;;;;0.30;0.30;;;;;;;13.15;100.00;98268.94;7395633;19;20014;-86
2022/09/28 01:55:54;;;;;;;0.25;0.25;;;;;;;12.95;100.00;98272.25;7399180;19;20021;-84
2022/09/28 01:58:46;;;;;;;0.40;0.40;;;;;;;12.98;100.00;98271.22;7394144;19;20058;-84
2022/09/28 02:01:23;;;;;;;2.75;0.55;;;;;;;12.92;100.00;98279.69;7394745;19;20022;-85
2022/09/28 02:04:12;;;;;;;2.70;0.50;;;;;;;12.63;100.00;98269.41;7393866;19;20007;-84
2022/09/28 02:07:20;;;;;;;0.60;0.40;;;;;;;12.60;100.00;98270.47;7394208;19;20777;-85
2022/09/28 02:10:14;;;;;;;0.95;0.40;;;;;;;12.60;100.00;98270.47;7392842;19;20028;-84
2022/09/28 02:13:13;;;;;;;1.10;0.65;;;;;;;12.49;100.00;98269.88;7390639;19;20006;-85
2022/09/28 02:16:06;;;;;;;0.35;0.35;;;;;;;12.34;100.00;98259.13;7391734;19;20048;-85
2022/09/28 02:18:33;;;;;;;1.80;0.30;;;;;;;12.38;100.00;98264.41;7390456;19;20014;-85
2022/09/28 02:21:09;;;;;;;1.42;0.60;;;;;;;13.17;100.00;98260.78;7390317;19;20448;-85
2022/09/28 02:23:44;;;;;;;0.98;0.65;;;;;;;13.47;100.00;98263.38;7392855;19;20096;-84
2022/09/28 02:26:15;;;;;;;0.40;0.40;;;;;;;13.24;100.00;98260.16;7396468;19;20010;-85
2022/09/28 02:28:42;;;;;;;0.57;0.57;;;;;;;13.29;100.00;98253.75;7393719;19;20011;-85
2022/09/28 02:31:08;;;;;;;1.45;0.38;;;;;;;13.20;100.00;98259.72;7395391;19;20081;-85
2022/09/28 02:33:41;;;;;;;4.20;0.70;;;;;;;13.28;100.00;98260.63;7396190;19;20023;-85
2022/09/28 02:36:09;;;;;;;1.52;0.60;;;;;;;13.25;100.00;98255.34;7396450;19;20010;-85
2022/09/28 02:38:38;;;;;;;3.85;1.60;;;;;;;13.37;100.00;98263.00;7391780;19;20078;-85
2022/09/28 02:41:49;;;;;;;0.30;0.20;;;;;;;13.43;100.00;98263.66;7391199;19;20025;-85
2022/09/28 02:44:46;;;;;;;1.35;1.25;;;;;;;13.67;100.00;98262.75;7390489;19;20030;-85
2022/09/28 02:47:30;;;;;;;0.45;0.45;;;;;;;13.51;100.00;98266.59;7396059;19;20022;-84
2022/09/28 02:50:32;;;;;;;1.50;0.73;;;;;;;13.88;100.00;98265.72;7388672;19;20022;-85
2022/09/28 02:53:07;;;;;;;;;;;;;;;14.03;100.00;98265.94;7389159;19;20018;-85
2022/09/28 02:55:39;;;;;;;0.43;0.20;;;;;;;12.95;100.00;98272.25;7392157;19;19914;-85
2022/09/28 02:58:08;;;;;;;0.10;0.10;;;;;;;7.84;100.00;98290.81;7387106;19;20035;-85
2022/09/28 03:00:49;;;;;;;3.13;0.70;;;;;;;12.77;100.00;98278.63;7389194;19;20014;-85
2022/09/28 03:03:30;;;;;;;0.65;0.20;;;;;;;13.53;100.00;98267.59;7390420;19;20018;-85
2022/09/28 03:06:06;;;;;;;1.95;1.17;;;;;;;14.45;100.00;98264.84;7396481;19;20038;-86
2022/09/28 03:08:55;;;;;;;2.38;0.30;;;;;;;14.56;100.00;98272.28;7392276;19;20007;-85
2022/09/28 03:11:32;;;;;;;5.20;0.70;;;;;;;14.22;100.00;98267.34;7390169;19;20010;-84
2022/09/28 03:13:59;;;;;;;1.05;0.55;;;;;;;14.53;100.00;98268.50;7391740;19;20025;-85
2022/09/28 03:16:35;;;;;;;3.25;0.80;;;;;;;14.42;100.00;98274.34;7393706;19;20077;-85
2022/09/28 03:19:01;;;;;;;5.25;0.70;;;;;;;13.83;100.00;98270.09;7390762;19;20114;-85
2022/09/28 03:21:28;;;;;;;0.52;0.22;;;;;;;13.94;100.00;98264.31;7389455;19;20025;-85
2022/09/28 03:23:54;;;;;;;0.22;0.22;;;;;;;11.79;100.00;98276.47;7391173;19;20022;-84
2022/09/28 03:26:20;;;;;;;0.63;0.55;;;;;;;14.42;100.00;98274.34;7393948;19;20019;-85
2022/09/28 03:28:47;;;;;;;4.43;0.80;;;;;;;14.59;100.00;98271.97;7390893;19;20011;-85
2022/09/28 03:31:19;;;;;;;0.60;0.32;;;;;;;14.47;100.00;98276.28;7389047;19;20025;-85
2022/09/28 03:33:45;;;;;;;1.27;0.90;;;;;;;14.37;100.00;98278.00;7389382;19;20015;-85
2022/09/28 03:36:13;;;;;;;1.33;1.02;;;;;;;14.37;100.00;98278.78;7395007;19;20137;-85
2022/09/28 03:38:40;;;;;;;0.40;0.40;;;;;;;13.80;100.00;98276.75;7393621;19;20038;-85
2022/09/28 03:41:06;;;;;;;0.15;0.15;;;;;;;13.71;100.00;98271.59;7393344;19;20682;-85
2022/09/28 03:43:35;;;;;;;1.85;0.52;;;;;;;14.24;100.00;98275.19;7390689;19;20517;-85
2022/09/28 03:46:03;;;;;;;0.77;0.52;;;;;;;14.52;100.00;98278.22;7392839;19;20018;-85
2022/09/28 03:48:34;;;;;;;0.30;0.30;;;;;;;14.88;100.00;98279.22;7387758;19;20014;-86
2022/09/28 03:51:05;;;;;;;6.65;0.55;;;;;;;14.96;100.00;98276.50;7388317;19;20018;-85
2022/09/28 03:53:32;;;;;;;3.00;0.75;;;;;;;15.08;100.00;98274.94;7389454;19;20515;-86
2022/09/28 03:56:05;;;;;;;0.43;0.43;;;;;;;14.49;100.00;98275.75;7393127;19;20114;-84
2022/09/28 03:58:32;;;;;;;0.52;0.35;;;;;;;14.19;100.00;98281.63;7387750;19;20007;-83
2022/09/28 04:01:03;;;;;;;1.85;0.30;;;;;;;14.28;100.00;98275.63;7387555;19;20394;-84
2022/09/28 04:03:30;;;;;;;1.13;1.02;;;;;;;10.00;100.00;98297.53;7390376;19;20021;-85
2022/09/28 04:05:56;;;;;;;1.00;0.43;;;;;;;7.48;100.00;98304.16;7391877;19;20011;-85
2022/09/28 04:08:23;;;;;;;4.47;0.60;;;;;;;6.90;100.00;98312.94;7386532;19;20044;-84
2022/09/28 04:10:49;;;;;;;4.03;0.30;;;;;;;6.58;100.00;98311.34;7387466;19;20022;-85
2022/09/28 04:13:15;;;;;;;0.47;0.47;;;;;;;6.38;100.00;98308.59;7388070;19;20042;-85
2022/09/28 04:15:50;;;;;;;1.75;0.20;;;;;;;6.29;100.00;98325.31;7390469;19;20017;-85
2022/09/28 04:18:16;;;;;;;0.32;0.10;;;;;;;6.17;100.00;98312.63;7393192;19;20014;-85
2022/09/28 04:21:07;;;;;;;0.98;0.52;;;;;;;6.16;100.00;98322.13;7387842;19;20022;-85
2022/09/28 04:23:46;;;;;;;0.25;0.25;;;;;;;10.05;100.00;98321.78;7389372;19;20014;-84
2022/09/28 04:26:18;;;;;;;0.40;0.30;;;;;;;12.92;100.00;98302.03;7391523;19;20022;-84
2022/09/28 04:31:38;;;;;;;1.15;0.63;;;;;;;7.56;100.00;98321.06;7386817;19;20031;-85
2022/09/28 04:34:04;;;;;;;0.52;0.52;;;;;;;6.61;100.00;98329.72;7386767;19;20011;-85
2022/09/28 04:36:31;;;;;;;0.52;0.40;;;;;;;6.23;100.00;98332.78;7393082;19;20042;-84
2022/09/28 04:38:57;;;;;;;0.50;0.50;;;;;;;6.09;100.00;98337.13;7394577;19;20018;-84
2022/09/28 04:41:26;;;;;;;0.80;0.77;;;;;;;5.98;100.00;98331.44;7392605;19;20014;-85
2022/09/28 04:43:52;;;;;;;0.35;0.35;;;;;;;5.99;100.00;98339.25;7394045;19;20374;-85
2022/09/28 04:46:19;;;;;;;3.40;1.60;;;;;;;5.98;100.00;98334.19;7397395;19;20034;-84
2022/09/28 04:48:56;;;;;;;5.97;1.17;;;;;;;5.93;100.00;98327.34;7394278;19;20365;-85
2022/09/28 04:51:45;;;;;;;0.38;0.38;;;;;;;5.90;100.00;98322.03;7393683;19;20014;-85
2022/09/28 04:54:11;;;;;;;0.38;0.38;;;;;;;5.73;100.00;98326.53;7396359;19;20098;-86
2022/09/28 04:56:37;;;;;;;0.52;0.50;;;;;;;5.84;100.00;98330.25;7398560;19;20599;-84
2022/09/28 04:59:04;;;;;;;4.47;0.80;;;;;;;5.93;100.00;98321.81;7394444;19;20401;-84
2022/09/28 05:01:30;;;;;;;2.10;1.05;;;;;;;5.88;100.00;98324.53;7392183;19;20014;-85
2022/09/28 05:03:56;;;;;;;1.27;0.60;;;;;;;5.95;100.00;98335.19;7395416;19;20018;-84
2022/09/28 05:06:45;;;;;;;0.80;0.40;;;;;;;6.09;100.00;98329.59;7393403;19;20018;-84
2022/09/28 05:09:12;;;;;;;1.27;0.63;;;;;;;6.30;100.00;98326.84;7391239;19;20014;-83
2022/09/28 05:11:38;;;;;;;0.50;0.50;;;;;;;6.27;100.00;98325.81;7392781;19;20026;-85
2022/09/28 05:14:11;;;;;;;0.55;0.45;;;;;;;6.22;100.00;98320.19;7393254;19;20772;-84
2022/09/28 05:16:38;;;;;;;0.60;0.60;;;;;;;6.24;100.00;98318.47;7396719;19;20030;-84
2022/09/28 05:19:16;;;;;;;0.43;0.43;;;;;;;6.17;100.00;98323.66;7399534;19;20023;-85
2022/09/28 05:21:44;;;;;;;0.13;0.13;;;;;;;6.11;100.00;98321.59;7391575;19;20085;-84
2022/09/28 05:24:11;;;;;;;0.98;0.75;;;;;;;7.44;100.00;98330.56;7394013;19;20469;-85
2022/09/28 05:26:38;;;;;;;1.65;1.20;;;;;;;12.19;100.00;98312.56;7394013;19;20353;-85
2022/09/28 05:29:06;;;;;;;0.10;0.10;;;;;;;13.27;100.00;98306.66;7397960;19;20021;-85
2022/09/28 05:31:51;;;;;;;0.40;0.40;;;;;;;13.77;100.00;98307.88;7393828;19;20010;-84
2022/09/28 05:34:26;;;;;;;2.25;1.05;;;;;;;13.84;100.00;98310.03;7393847;19;20014;-83
2022/09/28 05:36:53;;;;;;;0.45;0.32;;;;;;;13.65;100.00;98322.03;7394638;19;20025;-84
2022/09/28 05:39:19;;;;;;;2.63;0.68;;;;;;;13.90;100.00;98314.25;7393179;19;20077;-85
2022/09/28 05:41:45;;;;;;;0.32;0.32;;;;;;;14.12;100.00;98304.69;7395649;19;20565;-85
2022/09/28 05:44:11;;;;;;;3.08;0.80;;;;;;;14.31;100.00;98314.50;7396205;19;20039;-84
2022/09/28 05:46:38;;;;;;;0.40;0.40;;;;;;;14.33;100.00;98311.19;7396754;19;20006;-85
2022/09/28 05:49:04;;;;;;;1.08;0.50;;;;;;;14.38;100.00;98313.88;7390707;19;20417;-84
2022/09/28 05:51:30;;;;;;;0.32;0.32;;;;;;;14.38;100.00;98313.13;7391620;19;20026;-84
2022/09/28 05:53:57;;;;;;;10.73;1.45;;;;;;;14.07;100.00;98311.16;7394251;19;20011;-85
2022/09/28 05:56:25;;;;;;;3.72;1.85;;;;;;;13.61;100.00;98309.66;7398270;19;20465;-84
2022/09/28 05:58:52;;;;;;;0.40;0.38;;;;;;;13.66;100.00;98306.03;7394060;19;20011;-83
2022/09/28 06:01:20;;;;;;;3.55;0.75;;;;;;;13.45;100.00;98303.03;7394736;19;20477;-85
2022/09/28 06:03:46;;;;;;;0.65;0.65;;;;;;;13.36;100.00;98311.81;7392040;19;20480;-85
2022/09/28 06:06:12;;;;;;;3.15;0.75;;;;;;;13.52;100.00;98310.81;7397992;19;20646;-85
2022/09/28 06:08:44;;;;;;;6.20;1.48;;;;;;;13.48;100.00;98313.16;7391710;19;20528;-85
2022/09/28 06:11:33;;;;;;;0.98;0.93;;;;;;;13.42;100.00;98314.53;7393127;19;20011;-85
2022/09/28 06:14:04;;;;;;;0.85;0.85;;;;;;;13.28;100.00;98316.53;7393445;19;20063;-84
2022/09/28 06:16:31;;;;;;;9.95;1.63;;;;;;;13.77;100.00;98321.88;7396036;19;20007;-85
2022/09/28 06:18:57;;;;;;;1.38;0.85;;;;;;;13.81;100.00;98330.69;7392400;19;20014;-85
2022/09/28 06:21:59;;;;;;;8.32;0.75;;;;;;;13.69;100.00;98330.13;7387385;19;20014;-85
2022/09/28 06:24:25;;;;;;;1.60;0.80;;;;;;;13.30;100.00;98325.13;7391444;19;20010;-85
2022/09/28 06:26:52;;;;;;;2.05;1.80;;;;;;;13.21;100.00;98328.31;7391572;19;20006;-84
2022/09/28 06:29:19;;;;;;;0.40;0.40;;;;;;;13.27;100.00;98331.81;7390081;19;20007;-85
2022/09/28 06:31:46;;;;;;;0.22;0.22;;;;;;;13.40;100.00;98334.66;7391383;19;20022;-84
2022/09/28 06:34:12;;;;;;;0.88;0.52;;;;;;;13.58;100.00;98336.66;7393286;19;20018;-85
2022/09/28 06:36:39;;;;;;;0.50;0.50;;;;;;;13.55;100.00;98334.94;7391171;19;20050;-84
2022/09/28 06:39:06;;;;;;;2.25;1.30;;;;;;;13.64;100.00;98340.09;7390794;19;20480;-83
2022/09/28 06:41:34;;;;;;;1.55;1.02;;;;;;;13.64;100.00;98336.56;7389300;19;20014;-84
2022/09/28 06:44:11;;;;;;;0.50;0.50;;;;;;;13.57;100.00;98340.75;7390368;19;20081;-85
2022/09/28 06:47:03;;;;;;;2.50;0.98;;;;;;;13.22;100.00;98340.25;7394511;19;20011;-84
2022/09/28 06:50:12;;;;;;;0.10;0.10;;;;;;;13.23;100.00;98348.09;7386564;19;20010;-84
2022/09/28 06:53:17;;;;;;;0.30;0.30;;;;;;;13.39;100.00;98349.91;7385626;19;20148;-84
2022/09/28 06:55:56;;;;;;;0.90;0.60;;;;;;;13.49;100.00;98353.09;7390062;19;20039;-84
2022/09/28 06:58:22;;;;;;;0.73;0.73;;;;;;;13.54;100.00;98364.19;7388608;19;20031;-85
2022/09/28 07:00:50;;;;;;;0.60;0.60;;;;;;;13.53;100.00;98364.72;7388779;19;20053;-84
2022/09/28 07:03:19;;;;;;;0.75;0.75;;;;;;;13.45;100.00;98361.75;7389791;19;20052;-85
2022/09/28 07:06:04;;;;;;;3.33;1.13;;;;;;;13.54;100.00;98361.38;7394472;19;20011;-85
2022/09/28 07:09:05;;;;;;;0.25;0.25;;;;;;;13.66;100.00;98359.91;7388428;19;20014;-84
2022/09/28 07:11:43;;;;;;;0.43;0.43;;;;;;;13.81;100.00;98361.47;7391654;19;20046;-85
2022/09/28 07:14:19;;;;;;;0.35;0.30;;;;;;;13.51;100.00;98356.84;7391821;19;20006;-85
2022/09/28 07:16:45;;;;;;;2.08;0.32;;;;;;;13.35;100.00;98354.31;7395187;19;20010;-90
2022/09/28 07:19:13;;;;;;;0.70;0.70;;;;;;;14.02;100.00;98353.97;7396612;19;20013;-86
2022/09/28 07:21:39;;;;;;;0.20;0.20;;;;;;;13.73;100.00;98360.59;7392360;19;20011;-86
2022/09/28 07:24:05;;;;;;;0.43;0.43;;;;;;;14.66;100.00;98360.22;7394993;19;20339;-86
2022/09/28 07:26:34;;;;;;;0.90;0.50;;;;;;;13.05;100.00;98365.66;7397811;19;20040;-86
2022/09/28 07:29:12;;;;;;;5.05;0.63;;;;;;;12.18;100.00;98366.91;7396470;19;20354;-86
2022/09/28 07:31:38;;;;;;;0.28;0.28;;;;;;;13.59;100.00;98366.13;7392065;19;20010;-86
2022/09/28 07:34:21;;;;;;;0.30;0.20;;;;;;;14.26;100.00;98368.56;7394692;19;20014;-87
2022/09/28 07:37:17;;;;;;;1.95;0.75;;;;;;;14.11;100.00;98367.56;7383103;19;20082;-87
2022/09/28 07:42:32;;;;;;;2.72;0.50;;;;;;;14.23;100.00;98374.47;7383636;19;20094;-87
2022/09/28 07:44:58;;;;;;;0.30;0.30;;;;;;;14.13;100.00;98376.19;7389524;19;20528;-87
2022/09/28 07:47:26;;;;;;;25.10;1.13;;;;;;;13.95;100.00;98377.75;7387245;19;20026;-86
2022/09/28 07:50:10;;;;;;;0.55;0.20;;;;;;;13.93;100.00;98379.56;7390640;19;20021;-86
2022/09/28 07:52:52;;;;;;;1.65;0.93;;;;;;;14.50;100.00;98373.25;7382059;19;20288;-84
2022/09/28 07:55:27;;;;;;;1.65;1.05;;;;;;;14.39;100.00;98379.06;7386667;19;20034;-86
2022/09/28 07:58:06;;;;;;;0.80;0.80;;;;;;;14.52;100.00;98381.88;7385713;19;20331;-85
2022/09/28 08:00:51;;;;;;;3.92;1.70;;;;;;;14.61;100.00;98381.44;7387606;19;20026;-84
2022/09/28 08:03:21;;;;;;;18.65;2.92;;;;;;;14.58;100.00;98392.94;7386403;19;20018;-85
2022/09/28 08:05:47;;;;;;;1.00;0.90;;;;;;;14.59;100.00;98384.03;7388727;19;20019;-84
2022/09/28 08:08:14;;;;;;;0.32;0.30;;;;;;;14.91;100.00;98381.84;7386776;19;20090;-84
2022/09/28 08:10:42;;;;;;;0.57;0.57;;;;;;;14.86;100.00;98385.50;7383995;19;20036;-85
2022/09/28 08:13:20;;;;;;;0.25;0.25;;;;;;;14.84;100.00;98388.09;7383323;19;20035;-85
2022/09/28 08:16:00;;;;;;;0.30;0.13;;;;;;;14.83;100.00;98385.84;7389021;19;20465;-84
2022/09/28 08:18:50;;;;;;;0.22;0.22;;;;;;;15.09;100.00;98389.34;7385940;19;20015;-85
2022/09/28 08:24:00;;;;;;;1.17;0.63;;;;;;;15.09;100.00;98383.75;7389768;19;20373;-85
2022/09/28 08:26:28;;;;;;;1.48;1.15;;;;;;;14.95;100.00;98387.13;7389414;19;20015;-84
2022/09/28 08:28:54;;;;;;;0.70;0.50;;;;;;;15.02;100.00;98389.28;7382745;19;20010;-84
2022/09/28 08:31:38;;;;;;;1.15;1.05;;;;;;;14.85;100.00;98388.88;7384864;19;20018;-84
2022/09/28 08:34:12;;;;;;;17.95;1.00;;;;;;;15.09;100.00;98385.81;7387976;19;20022;-83
2022/09/28 08:36:58;;;;;;;5.72;0.60;;;;;;;15.19;100.00;98390.44;7384860;19;20018;-84
2022/09/28 08:39:50;;;;;;;0.30;0.30;;;;;;;15.10;100.00;98393.69;7383981;19;20454;-88
2022/09/28 08:42:41;;;;;;;7.85;0.93;;;;;;;15.10;100.00;98399.28;7383375;19;20018;-86
2022/09/28 08:45:43;;;;;;;0.43;0.35;;;;;;;14.57;100.00;98392.22;7387792;19;20018;-87
2022/09/28 08:48:53;;;;;;;0.68;0.52;;;;;;;14.74;100.00;98395.44;7384660;19;20015;-85
2022/09/28 08:51:52;;;;;;;0.45;0.45;;;;;;;14.75;100.00;98396.94;7380448;19;20019;-87
2022/09/28 08:54:38;;;;;;;0.68;0.63;;;;;;;15.07;100.00;98405.97;7384252;19;20038;-84
2022/09/28 08:57:19;;;;;;;1.83;0.85;;;;;;;15.28;100.00;98402.50;7383656;19;20019;-83
2022/09/28 08:59:52;;;;;;;2.08;0.50;;;;;;;15.39;100.00;98396.63;7384193;19;20021;-83
2022/09/28 09:02:32;;;;;;;0.50;0.50;;;;;;;15.33;100.00;98393.97;7382099;19;20006;-84
2022/09/28 09:05:13;;;;;;;0.30;0.30;;;;;;;15.62;100.00;98394.84;7385154;19;20458;-83
2022/09/28 09:08:30;;;;;;;0.75;0.75;;;;;;;15.96;100.00;98395.56;7386539;19;20502;-84
2022/09/28 09:11:06;;;;;;;1.02;0.60;;;;;;;14.77;100.00;98404.84;7386711;19;20015;-83
2022/09/28 09:13:44;;;;;;;0.40;0.40;;;;;;;15.96;100.00;98400.44;7382413;19;20014;-82
2022/09/28 09:16:29;;;;;;;1.00;0.30;;;;;;;15.98;100.00;98400.66;7386204;19;20035;-84
2022/09/28 09:19:45;;;;;;;0.45;0.32;;;;;;;15.86;100.00;98394.53;7380948;19;20019;-84
2022/09/28 09:22:33;;;;;;;0.47;0.35;;;;;;;16.04;100.00;98399.22;7381613;19;20029;-84
2022/09/28 09:25:13;;;;;;;1.02;0.70;;;;;;;16.52;100.00;98390.06;7391458;19;20394;-84
2022/09/28 09:28:15;;;;;;;1.60;1.25;;;;;;;16.29;100.00;98396.78;7392982;19;20014;-83
2022/09/28 09:30:57;;;;;;;0.40;0.40;;;;;;;16.45;100.00;98398.41;7391824;19;20023;-84
2022/09/28 09:33:41;;;;;;;1.10;0.50;;;;;;;16.79;100.00;98393.41;7392944;19;20406;-83
2022/09/28 09:37:19;;;;;;;2.10;0.43;;;;;;;17.38;100.00;98397.81;7390980;19;20015;-82
2022/09/28 09:41:07;;;;;;;0.20;0.13;;;;;;;17.11;100.00;98393.00;7393229;19;20015;-83
2022/09/28 09:44:32;;;;;;;0.35;0.30;;;;;;;16.00;100.00;98393.19;7394381;19;20034;-82
2022/09/28 09:47:32;;;;;;;0.50;0.50;;;;;;;16.01;100.00;98400.28;7394657;19;20007;-84
2022/09/28 09:50:18;;;;;;;0.13;0.13;;;;;;;16.08;100.00;98399.63;7387054;19;20026;-82
2022/09/28 09:52:53;;;;;;;0.47;0.43;;;;;;;15.97;100.00;98399.88;7385894;19;20019;-83
2022/09/28 09:55:29;;;;;;;0.30;0.30;;;;;;;16.65;100.00;98392.03;7392490;19;20015;-82
2022/09/28 09:58:21;;;;;;;;;;;;;;;16.24;100.00;98384.38;7391964;19;20033;-82
2022/09/28 10:00:58;;;;;;;1.45;0.35;;;;;;;16.85;100.00;98373.59;7387779;19;19926;-83
2022/09/28 10:03:47;;;;;;;0.30;0.30;;;;;;;16.91;100.00;98382.63;7390019;19;20669;-82
2022/09/28 10:06:26;;;;;;;0.40;0.30;;;;;;;17.03;100.00;98381.72;7392188;19;20014;-81
2022/09/28 10:09:02;;;;;;;0.25;0.25;;;;;;;17.28;100.00;98387.66;7392289;19;20481;-82
2022/09/28 10:11:45;;;;;;;1.42;0.40;;;;;;;17.40;100.00;98386.75;7387412;19;20070;-82
2022/09/28 10:14:23;;;;;;;0.55;0.55;;;;;;;17.24;100.00;98387.25;7389019;19;20092;-81
2022/09/28 10:17:14;;;;;;;3.75;0.47;;;;;;;17.12;100.00;98380.47;7394499;19;20014;-82
2022/09/28 10:20:12;;;;;;;0.30;0.30;;;;;;;17.49;100.00;98374.22;7388661;19;20018;-82
2022/09/28 10:23:02;;;;;;;0.20;0.20;;;;;;;17.71;100.00;98379.19;7391367;19;20014;-83
2022/09/28 10:25:32;;;;;;;0.10;0.10;;;;;;;17.78;100.00;98372.06;7392365;19;20010;-84
2022/09/28 10:28:00;;;;;;;1.10;0.47;;;;;;;17.79;100.00;98374.31;7390643;19;20486;-83
2022/09/28 10:30:27;;;;;;;0.25;0.15;;;;;;;17.75;100.00;98373.94;7388268;19;20033;-84
2022/09/28 10:32:58;;;;;;;0.52;0.30;;;;;;;18.04;100.00;98372.44;7387891;19;20018;-83
2022/09/28 10:35:30;;;;;;;0.45;0.45;;;;;;;18.21;100.00;98368.31;7387098;19;20006;-85
2022/09/28 10:38:02;;;;;;;1.27;0.47;;;;;;;18.47;100.00;98370.78;7386329;19;20014;-85
2022/09/28 10:40:48;;;;;;;0.20;0.15;;;;;;;18.08;100.00;98372.09;7386377;19;20629;-84
2022/09/28 10:43:37;;;;;;;0.57;0.25;;;;;;;18.26;100.00;98370.22;7387224;19;20351;-83
2022/09/28 10:46:22;;;;;;;0.65;0.25;;;;;;;17.79;100.00;98371.50;7390496;19;20799;-84
2022/09/28 10:48:59;;;;;;;1.25;0.68;;;;;;;18.62;100.00;98368.69;7391153;19;20014;-84
2022/09/28 10:51:46;;;;;;;0.30;0.30;;;;;;;18.79;100.00;98370.91;7386762;19;20029;-83
2022/09/28 10:54:24;;;;;;;1.35;0.70;;;;;;;18.75;100.00;98359.25;7386970;19;20014;-83
2022/09/28 10:56:53;;;;;;;0.63;0.63;;;;;;;18.86;100.00;98350.41;7388314;19;20045;-82
2022/09/28 10:59:30;;;;;;;0.30;0.30;;;;;;;18.92;100.00;98356.56;7387595;19;20501;-84
2022/09/28 11:02:26;;;;;;;0.22;0.22;;;;;;;18.79;100.00;98354.75;7386317;19;20021;-84
2022/09/28 11:05:00;;;;;;;0.75;0.43;;;;;;;19.37;100.00;98356.41;7389507;19;20026;-84
2022/09/28 11:07:32;;;;;;;0.50;0.10;;;;;;;19.38;100.00;98355.06;7387956;19;20022;-84
2022/09/28 11:10:00;;;;;;;0.30;0.30;;;;;;;19.88;100.00;98358.72;7384388;19;20020;-84
2022/09/28 11:12:38;;;;;;;0.95;0.45;;;;;;;19.85;100.00;98347.84;7385884;19;20018;-84
2022/09/28 11:15:06;;;;;;;0.30;0.30;;;;;;;19.46;100.00;98352.97;7390337;19;20476;-86
2022/09/28 11:17:37;;;;;;;0.40;0.20;;;;;;;19.50;100.00;98352.56;7386582;19;20026;-84
2022/09/28 11:20:39;;;;;;;0.77;0.30;;;;;;;19.71;100.00;98355.09;7386954;19;20042;-81
2022/09/28 11:23:20;;;;;;;0.10;0.10;;;;;;;19.62;100.00;98348.00;7385010;19;20493;-83
2022/09/28 11:26:04;;;;;;;0.30;0.13;;;;;;;19.74;100.00;98353.94;7391139;19;20006;-82
2022/09/28 11:28:34;;;;;;;0.60;0.32;;;;;;;19.92;100.00;98358.34;7386513;19;20351;-82
2022/09/28 11:31:07;;;;;;;0.30;0.30;;;;;;;19.62;100.00;98354.38;7386747;19;20473;-82
2022/09/28 11:33:44;;;;;;;0.10;0.10;;;;;;;19.32;100.00;98343.22;7389812;19;20026;-82
2022/09/28 11:37:12;;;;;;;0.20;0.20;;;;;;;18.63;100.00;98352.50;7386562;19;20010;-82
2022/09/28 11:39:49;;;;;;;1.27;0.10;;;;;;;19.58;100.00;98348.38;7385542;19;20014;-81
2022/09/28 11:42:18;;;;;;;0.20;0.20;;;;;;;19.48;100.00;98355.22;7385345;19;20354;-80
2022/09/28 11:44:48;;;;;;;1.23;0.20;;;;;;;20.22;100.00;98350.41;7386769;19;20014;-81
2022/09/28 11:47:43;;;;;;;0.40;0.20;;;;;;;20.33;100.00;98354.84;7389459;19;20018;-81
2022/09/28 11:50:32;;;;;;;0.30;0.20;;;;;;;20.53;100.00;98355.78;7382891;19;20097;-80
2022/09/28 11:53:18;;;;;;;0.10;0.10;;;;;;;20.31;100.00;98358.22;7386420;19;20029;-81
2022/09/28 11:55:53;;;;;;;1.08;0.30;;;;;;;20.57;100.00;98354.03;7385398;19;20034;-80
2022/09/28 11:58:36;;;;;;;4.78;0.38;;;;;;;20.29;100.00;98351.66;7384758;19;20029;-81
2022/09/28 12:01:13;;;;;;;0.20;0.10;;;;;;;20.66;100.00;98356.19;7389681;19;20024;-81
2022/09/28 12:04:25;;;;;;;0.30;0.20;;;;;;;21.01;100.00;98348.44;7387069;19;20496;-81
2022/09/28 12:07:18;;;;;;;0.50;0.20;;;;;;;21.28;100.00;98349.28;7388801;19;20021;-82
2022/09/28 12:10:34;;;;;;;0.57;0.20;;;;;;;20.51;100.00;98347.84;7379697;19;20033;-81
2022/09/28 12:13:04;;;;;;;2.50;0.82;;;;;;;17.97;100.00;98356.31;7380533;19;20030;-80
2022/09/28 12:15:47;;;;;;;0.23;0.10;;;;;;;13.45;100.00;98361.75;7386531;19;20026;-80
2022/09/28 12:18:21;;;;;;;0.20;0.20;;;;;;;12.52;100.00;98360.94;7383312;19;20598;-79
2022/09/28 12:20:53;;;;;;;0.43;0.28;;;;;;;12.19;100.00;98371.19;7385817;19;20018;-83
2022/09/28 12:23:34;;;;;;;3.70;0.35;;;;;;;11.93;100.00;98359.75;7388643;19;20393;-83